createdAt,value
2018-11-02T00:01:01.639Z,92.53
2018-11-02T00:03:30.628Z,92.24
2018-11-02T00:05:59.813Z,91.98
2018-11-02T00:08:28.699Z,92.04
2018-11-02T00:10:57.585Z,91.68
2018-11-02T00:13:26.505Z,92.31
2018-11-02T00:15:55.355Z,91.79
2018-11-02T00:18:24.347Z,91.57
2018-11-02T00:20:53.348Z,91.17
2018-11-02T00:23:22.601Z,91.10
2018-11-02T00:25:51.494Z,90.62
2018-11-02T00:28:20.413Z,90.83
2018-11-02T00:30:49.374Z,90.68
2018-11-02T00:33:18.193Z,90.61
2018-11-02T00:35:47.102Z,90.17
2018-11-02T00:38:15.966Z,90.65
2018-11-02T00:40:44.880Z,90.46
2018-11-02T00:43:13.768Z,89.93
2018-11-02T00:45:42.622Z,89.61
2018-11-02T00:48:11.544Z,90.19
2018-11-02T00:50:40.386Z,89.86
2018-11-02T00:53:09.261Z,89.62
2018-11-02T00:55:38.250Z,89.45
2018-11-02T00:58:07.424Z,89.28
2018-11-02T01:00:36.293Z,89.69
2018-11-02T01:03:05.300Z,90.07
2018-11-02T01:05:34.211Z,89.68
2018-11-02T01:08:03.059Z,89.47
2018-11-02T01:10:31.995Z,89.44
2018-11-02T01:13:00.934Z,89.22
2018-11-02T01:15:29.834Z,89.30
2018-11-02T01:17:58.726Z,90.49
2018-11-02T01:20:27.629Z,90.87
2018-11-02T01:22:56.531Z,90.93
2018-11-02T01:25:25.437Z,91.54
2018-11-02T01:27:54.324Z,90.68
2018-11-02T01:30:23.180Z,90.60
2018-11-02T01:32:52.099Z,90.04
2018-11-02T01:35:20.989Z,90.76
2018-11-02T01:37:49.823Z,91.39
2018-11-02T01:40:18.770Z,91.91
2018-11-02T01:42:47.674Z,91.75
2018-11-02T01:45:16.596Z,91.62
2018-11-02T01:47:45.495Z,92.51
2018-11-02T01:50:14.368Z,91.73
2018-11-02T01:52:43.289Z,91.97
2018-11-02T01:55:12.172Z,91.87
2018-11-02T01:57:41.063Z,92.03
2018-11-02T02:00:10.002Z,92.87
2018-11-02T02:02:38.907Z,92.41
2018-11-02T02:05:08.218Z,91.90
2018-11-02T02:07:37.230Z,91.67
2018-11-02T02:10:06.305Z,91.08
2018-11-02T02:12:35.193Z,91.20
2018-11-02T02:15:04.107Z,91.48
2018-11-02T02:17:33.020Z,92.83
2018-11-02T02:20:01.941Z,93.66
2018-11-02T02:22:30.827Z,93.13
2018-11-02T02:24:59.713Z,92.88
2018-11-02T02:27:28.662Z,92.91
2018-11-02T02:29:57.521Z,93.35
2018-11-02T02:32:26.403Z,93.60
2018-11-02T02:34:55.287Z,93.62
2018-11-02T02:37:24.166Z,94.22
2018-11-02T02:39:53.037Z,94.27
2018-11-02T02:42:21.921Z,94.53
2018-11-02T02:44:50.820Z,93.99
2018-11-02T02:47:19.763Z,93.36
2018-11-02T02:49:48.756Z,93.43
2018-11-02T02:52:17.703Z,94.24
2018-11-02T02:54:46.622Z,93.63
2018-11-02T02:57:15.546Z,93.62
2018-11-02T02:59:44.478Z,93.61
2018-11-02T03:02:13.574Z,93.19
2018-11-02T03:04:42.504Z,93.59
2018-11-02T03:07:11.429Z,92.90
2018-11-02T03:09:40.303Z,93.16
2018-11-02T03:12:09.187Z,92.97
2018-11-02T03:14:38.175Z,93.61
2018-11-02T03:17:07.131Z,93.33
2018-11-02T03:19:36.099Z,92.90
2018-11-02T03:22:05.040Z,92.62
2018-11-02T03:24:34.073Z,93.40
2018-11-02T03:27:03.059Z,92.89
2018-11-02T03:29:31.973Z,93.29
2018-11-02T03:32:00.868Z,93.16
2018-11-02T03:34:29.739Z,93.47
2018-11-02T03:36:58.641Z,93.75
2018-11-02T03:39:27.512Z,93.17
2018-11-02T03:41:56.444Z,93.14
2018-11-02T03:44:25.346Z,94.03
2018-11-02T03:46:54.217Z,93.83
2018-11-02T03:49:23.155Z,92.89
2018-11-02T03:51:52.017Z,92.68
2018-11-02T03:54:20.927Z,92.80
2018-11-02T03:56:49.983Z,92.00
2018-11-02T03:59:19.152Z,91.89
2018-11-02T04:01:48.145Z,92.35
2018-11-02T04:04:17.143Z,92.44
2018-11-02T04:06:46.063Z,91.70
2018-11-02T04:09:15.005Z,92.47
2018-11-02T04:11:43.911Z,92.38
2018-11-02T04:14:12.827Z,92.32
2018-11-02T04:16:41.784Z,92.92
2018-11-02T04:19:10.700Z,92.36
2018-11-02T04:21:46.191Z,92.51
2018-11-02T04:24:15.131Z,93.82
2018-11-02T04:26:44.018Z,93.36
2018-11-02T04:29:13.991Z,92.64
2018-11-02T04:31:43.537Z,93.19
2018-11-02T04:34:13.010Z,94.24
2018-11-02T04:36:41.925Z,95.02
2018-11-02T04:39:12.454Z,94.30
2018-11-02T04:41:41.347Z,94.51
2018-11-02T04:44:10.987Z,94.82
2018-11-02T04:46:40.009Z,94.19
2018-11-02T04:49:09.329Z,94.56
2018-11-02T04:51:38.621Z,93.22
2018-11-02T04:54:07.626Z,93.79
2018-11-02T04:56:36.531Z,93.77
2018-11-02T04:59:05.477Z,94.00
2018-11-02T05:01:34.530Z,94.58
2018-11-02T05:04:03.470Z,95.05
2018-11-02T05:06:32.380Z,93.99
2018-11-02T05:09:01.309Z,95.19
2018-11-02T05:11:30.384Z,94.74
2018-11-02T05:13:59.179Z,95.05
2018-11-02T05:16:28.051Z,95.64
2018-11-02T05:18:56.963Z,94.60
2018-11-02T05:21:26.013Z,94.30
2018-11-02T05:23:54.766Z,95.10
2018-11-02T05:26:23.683Z,94.18
2018-11-02T05:28:52.592Z,95.00
2018-11-02T05:31:21.554Z,94.93
2018-11-02T05:33:50.523Z,95.09
2018-11-02T05:36:19.428Z,95.35
2018-11-02T05:38:48.291Z,94.40
2018-11-02T05:41:17.163Z,95.16
2018-11-02T05:43:46.068Z,94.81
2018-11-02T05:46:14.947Z,95.08
2018-11-02T05:48:43.990Z,94.83
2018-11-02T05:51:12.896Z,94.24
2018-11-02T05:53:41.766Z,95.21
2018-11-02T05:56:10.617Z,95.09
2018-11-02T05:58:39.539Z,95.48
2018-11-02T06:01:08.464Z,94.96
2018-11-02T06:03:37.313Z,94.93
2018-11-02T06:06:06.238Z,95.61
2018-11-02T06:08:35.140Z,95.44
2018-11-02T06:11:04.023Z,95.37
2018-11-02T06:13:32.929Z,96.00
2018-11-02T06:16:01.854Z,95.70
2018-11-02T06:18:30.732Z,95.78
2018-11-02T06:20:59.642Z,95.71
2018-11-02T06:23:28.560Z,95.38
2018-11-02T06:25:57.478Z,95.20
2018-11-02T06:28:26.353Z,95.71
2018-11-02T06:30:55.260Z,95.76
2018-11-02T06:33:24.181Z,95.33
2018-11-02T06:35:53.085Z,95.61
2018-11-02T06:38:22.033Z,95.84
2018-11-02T06:40:50.903Z,95.10
2018-11-02T06:43:19.808Z,95.73
2018-11-02T06:45:48.694Z,95.41
2018-11-02T06:48:17.619Z,95.09
2018-11-02T06:50:46.523Z,95.20
2018-11-02T06:53:15.443Z,95.09
2018-11-02T06:55:44.776Z,94.97
2018-11-02T06:58:13.666Z,95.07
2018-11-02T07:00:42.599Z,94.13
2018-11-02T07:03:11.474Z,94.39
2018-11-02T07:05:40.355Z,94.05
2018-11-02T07:08:09.444Z,94.35
2018-11-02T07:10:38.155Z,94.52
2018-11-02T07:13:07.027Z,94.22
2018-11-02T07:15:36.457Z,94.37
2018-11-02T07:18:05.472Z,94.06
2018-11-02T07:20:34.361Z,94.09
2018-11-02T07:23:03.226Z,94.45
2018-11-02T07:25:32.100Z,93.91
2018-11-02T07:28:00.954Z,94.18
2018-11-02T07:30:29.819Z,94.11
2018-11-02T07:32:58.763Z,94.41
2018-11-02T07:35:27.631Z,93.45
2018-11-02T07:37:56.577Z,93.81
2018-11-02T07:40:25.864Z,93.68
2018-11-02T07:42:54.733Z,94.03
2018-11-02T07:45:23.683Z,93.61
2018-11-02T07:47:52.673Z,93.55
2018-11-02T07:50:21.479Z,92.86
2018-11-02T07:52:50.557Z,93.36
2018-11-02T07:55:19.433Z,92.53
2018-11-02T07:57:48.294Z,93.13
2018-11-02T08:00:18.054Z,92.35
2018-11-02T08:02:47.657Z,92.19
2018-11-02T08:05:16.925Z,92.56
2018-11-02T08:07:45.840Z,92.67
2018-11-02T08:10:14.717Z,91.92
2018-11-02T08:12:43.635Z,92.05
2018-11-02T08:15:13.074Z,92.47
2018-11-02T08:17:42.506Z,92.04
2018-11-02T08:20:12.698Z,91.89
2018-11-02T08:22:41.944Z,91.89
2018-11-02T08:25:11.577Z,91.75
2018-11-02T08:27:40.906Z,91.13
2018-11-02T08:30:10.626Z,90.74
2018-11-02T08:32:39.631Z,91.45
2018-11-02T08:35:10.363Z,91.19
2018-11-02T08:37:39.266Z,91.20
2018-11-02T08:40:09.032Z,90.96
2018-11-02T08:42:37.910Z,90.58
2018-11-02T08:45:07.131Z,91.40
2018-11-02T08:47:36.061Z,90.91
2018-11-02T08:50:05.448Z,90.76
2018-11-02T08:52:34.411Z,90.75
2018-11-02T08:55:03.264Z,90.67
2018-11-02T08:57:32.210Z,90.73
2018-11-02T09:00:01.145Z,90.60
2018-11-02T09:02:30.033Z,90.69
2018-11-02T09:04:58.972Z,90.36
2018-11-02T09:07:27.834Z,90.64
2018-11-02T09:09:56.744Z,90.61
2018-11-02T09:12:25.680Z,90.50
2018-11-02T09:14:54.549Z,90.25
2018-11-02T09:17:23.481Z,90.12
2018-11-02T09:19:52.997Z,90.46
2018-11-02T09:22:22.015Z,90.63
2018-11-02T09:24:50.922Z,89.68
2018-11-02T09:27:19.891Z,90.65
2018-11-02T09:29:48.860Z,90.17
2018-11-02T09:32:17.772Z,90.94
2018-11-02T09:34:46.675Z,90.09
2018-11-02T09:37:15.880Z,90.97
2018-11-02T09:39:44.785Z,90.88
2018-11-02T09:42:13.761Z,90.59
2018-11-02T09:44:42.750Z,90.35
2018-11-02T09:47:11.670Z,90.82
2018-11-02T09:49:40.584Z,90.65
2018-11-02T09:52:09.581Z,90.48
2018-11-02T09:54:38.440Z,90.18
2018-11-02T09:57:07.479Z,89.77
2018-11-02T09:59:36.370Z,89.42
2018-11-02T10:02:05.298Z,87.94
2018-11-02T10:04:34.196Z,87.43
2018-11-02T10:07:03.116Z,87.04
2018-11-02T10:09:32.067Z,86.91
2018-11-02T10:12:00.947Z,87.09
2018-11-02T10:14:29.830Z,86.97
2018-11-02T10:16:58.743Z,86.27
2018-11-02T10:19:27.770Z,86.63
2018-11-02T10:21:56.688Z,85.41
2018-11-02T10:24:25.620Z,85.37
2018-11-02T10:26:54.525Z,85.34
2018-11-02T10:29:23.444Z,84.62
2018-11-02T10:31:52.402Z,85.90
2018-11-02T10:34:21.300Z,84.77
2018-11-02T10:36:50.277Z,85.27
2018-11-02T10:39:19.286Z,85.13
2018-11-02T10:41:50.719Z,85.17
2018-11-02T10:44:24.592Z,85.22
2018-11-02T10:46:53.515Z,84.50
2018-11-02T10:49:22.453Z,84.80
2018-11-02T10:51:51.395Z,85.21
2018-11-02T10:54:20.358Z,85.49
2018-11-02T10:56:49.297Z,84.65
2018-11-02T10:59:18.194Z,84.29
2018-11-02T11:01:56.300Z,84.02
2018-11-02T11:04:25.184Z,83.31
2018-11-02T11:06:54.187Z,83.21
2018-11-02T11:09:23.106Z,82.75
2018-11-02T11:11:52.105Z,82.80
2018-11-02T11:14:20.925Z,82.52
2018-11-02T11:16:49.846Z,81.56
2018-11-02T11:19:18.795Z,82.27
2018-11-02T11:21:47.661Z,81.12
2018-11-02T11:24:16.567Z,81.55
2018-11-02T11:26:45.472Z,80.62
2018-11-02T11:29:14.406Z,81.28
2018-11-02T11:31:43.324Z,81.27
2018-11-02T11:34:12.261Z,82.12
2018-11-02T11:36:41.164Z,82.19
2018-11-02T11:39:12.104Z,82.28
2018-11-02T11:41:41.094Z,83.17
2018-11-02T11:44:10.297Z,83.06
2018-11-02T11:46:39.318Z,81.78
2018-11-02T11:49:09.457Z,81.96
2018-11-02T11:51:38.278Z,82.55
2018-11-02T11:54:07.146Z,81.52
2018-11-02T11:56:36.067Z,83.38
2018-11-02T11:59:05.017Z,82.68
2018-11-02T12:01:33.936Z,83.26
2018-11-02T12:04:02.822Z,82.27
2018-11-02T12:06:31.711Z,82.27
2018-11-02T12:09:00.609Z,82.49
2018-11-02T12:11:29.699Z,82.20
2018-11-02T12:13:58.577Z,82.89
2018-11-02T12:16:27.450Z,83.37
2018-11-02T12:18:56.353Z,81.89
2018-11-02T12:21:25.327Z,81.04
2018-11-02T12:23:54.226Z,81.04
2018-11-02T12:26:23.170Z,80.68
2018-11-02T12:28:52.125Z,79.77
2018-11-02T12:31:21.008Z,79.62
2018-11-02T12:33:49.947Z,79.91
2018-11-02T12:36:18.878Z,79.65
2018-11-02T12:38:47.717Z,79.42
2018-11-02T12:41:16.765Z,80.78
2018-11-02T12:43:45.691Z,81.10
2018-11-02T12:46:14.613Z,80.97
2018-11-02T12:48:43.604Z,81.05
2018-11-02T12:51:12.488Z,79.09
2018-11-02T12:53:41.365Z,79.30
2018-11-02T12:56:10.286Z,78.09
2018-11-02T12:58:39.182Z,79.40
2018-11-02T13:01:08.053Z,77.11
2018-11-02T13:03:36.942Z,77.40
2018-11-02T13:06:05.932Z,76.68
2018-11-02T13:08:34.943Z,77.47
2018-11-02T13:11:04.019Z,77.91
2018-11-02T13:13:32.911Z,77.91
2018-11-02T13:16:01.982Z,78.58
2018-11-02T13:18:30.704Z,78.11
2018-11-02T13:20:59.632Z,77.70
2018-11-02T13:23:28.592Z,78.28
2018-11-02T13:25:57.601Z,77.63
2018-11-02T13:28:26.385Z,77.61
2018-11-02T13:30:55.432Z,77.65
2018-11-02T13:33:24.219Z,77.17
2018-11-02T13:35:53.198Z,76.62
2018-11-02T13:38:22.115Z,75.92
2018-11-02T13:40:51.051Z,75.49
2018-11-02T13:43:20.014Z,75.36
2018-11-02T13:45:48.886Z,76.24
2018-11-02T13:48:17.761Z,75.80
2018-11-02T13:50:46.699Z,76.06
2018-11-02T13:53:16.522Z,76.70
2018-11-02T13:55:45.401Z,76.92
2018-11-02T13:58:14.360Z,76.93
2018-11-02T14:00:43.328Z,77.10
2018-11-02T14:03:12.305Z,76.80
2018-11-02T14:05:41.191Z,76.64
2018-11-02T14:08:10.222Z,77.24
2018-11-02T14:10:39.136Z,77.29
2018-11-02T14:13:08.031Z,75.92
2018-11-02T14:15:36.962Z,76.52
2018-11-02T14:18:05.922Z,76.89
2018-11-02T14:20:34.823Z,76.54
2018-11-02T14:23:03.716Z,76.22
2018-11-02T14:25:32.598Z,76.60
2018-11-02T14:28:01.492Z,76.84
2018-11-02T14:30:30.432Z,76.75
2018-11-02T14:32:59.383Z,76.84
2018-11-02T14:35:28.339Z,77.08
2018-11-02T14:37:57.268Z,77.97
2018-11-02T14:40:26.830Z,77.98
2018-11-02T14:42:55.723Z,78.56
2018-11-02T14:45:24.626Z,79.11
2018-11-02T14:47:53.510Z,78.52
2018-11-02T14:50:22.453Z,78.10
2018-11-02T14:52:51.347Z,78.50
2018-11-02T14:55:20.292Z,78.67
2018-11-02T14:57:49.245Z,79.37
2018-11-02T15:00:18.155Z,78.78
2018-11-02T15:02:47.067Z,79.25
2018-11-02T15:05:15.970Z,78.87
2018-11-02T15:07:44.919Z,78.88
2018-11-02T15:10:13.894Z,78.76
2018-11-02T15:12:42.810Z,78.46
2018-11-02T15:15:11.805Z,78.27
2018-11-02T15:17:40.851Z,78.66
2018-11-02T15:20:12.741Z,78.59
2018-11-02T15:22:41.677Z,78.58
2018-11-02T15:25:11.063Z,78.43
2018-11-02T15:27:39.964Z,78.44
2018-11-02T15:30:10.967Z,78.46
2018-11-02T15:32:39.880Z,78.92
2018-11-02T15:35:09.285Z,78.37
2018-11-02T15:37:38.230Z,78.28
2018-11-02T15:40:07.993Z,78.50
2018-11-02T15:42:37.030Z,78.22
2018-11-02T15:45:07.811Z,78.19
2018-11-02T15:47:36.713Z,78.09
2018-11-02T15:50:06.341Z,78.38
2018-11-02T15:52:35.278Z,78.99
2018-11-02T15:55:04.154Z,78.48
2018-11-02T15:57:33.080Z,77.77
2018-11-02T16:00:22.915Z,78.57
2018-11-02T16:02:52.601Z,78.66
2018-11-02T16:05:21.504Z,78.85
2018-11-02T16:07:50.425Z,78.74
2018-11-02T16:10:19.344Z,79.11
2018-11-02T16:12:48.280Z,78.63
2018-11-02T16:15:21.635Z,78.95
2018-11-02T16:18:06.977Z,79.49
2018-11-02T16:20:41.454Z,79.20
2018-11-02T16:23:11.861Z,79.12
2018-11-02T16:25:41.599Z,79.73
2018-11-02T16:28:10.558Z,80.31
2018-11-02T16:30:42.504Z,79.87
2018-11-02T16:36:31.238Z,80.39
2018-11-02T16:39:00.259Z,80.76
2018-11-02T16:41:29.196Z,80.15
2018-11-02T16:43:58.300Z,80.14
2018-11-02T16:46:27.007Z,80.88
2018-11-02T16:48:55.965Z,80.20
2018-11-02T16:51:24.884Z,80.92
2018-11-02T16:53:53.819Z,81.21
2018-11-02T16:56:22.759Z,80.49
2018-11-02T16:58:51.686Z,80.82
2018-11-02T17:01:20.634Z,80.38
2018-11-02T17:03:49.631Z,80.92
2018-11-02T17:06:18.873Z,80.23
2018-11-02T17:08:47.782Z,80.61
2018-11-02T17:11:16.759Z,80.68
2018-11-02T17:13:45.679Z,80.40
2018-11-02T17:16:14.558Z,80.85
2018-11-02T17:18:43.489Z,81.13
2018-11-02T17:21:12.470Z,80.74
2018-11-02T17:23:41.402Z,81.42
2018-11-02T17:26:10.290Z,81.10
2018-11-02T17:28:39.847Z,81.34
2018-11-02T17:31:08.756Z,81.34
2018-11-02T17:33:37.638Z,81.84
2018-11-02T17:36:06.812Z,82.21
2018-11-02T17:38:35.769Z,82.60
2018-11-02T17:41:05.134Z,83.07
2018-11-02T17:43:34.092Z,83.29
2018-11-02T17:46:03.043Z,83.06
2018-11-02T17:48:37.074Z,83.96
2018-11-02T17:51:06.921Z,82.83
2018-11-02T17:53:35.962Z,84.01
2018-11-02T17:56:04.909Z,83.14
2018-11-02T17:58:33.815Z,83.96
2018-11-02T18:01:02.733Z,84.36
2018-11-02T18:03:31.658Z,84.67
2018-11-02T18:06:00.764Z,84.72
2018-11-02T18:08:29.947Z,84.00
2018-11-02T18:10:58.867Z,84.06
2018-11-02T18:13:27.940Z,83.66
2018-11-02T18:15:56.953Z,83.25
2018-11-02T18:18:25.982Z,83.61
2018-11-02T18:20:55.514Z,83.91
2018-11-02T18:23:24.550Z,83.02
2018-11-02T18:25:54.047Z,82.63
2018-11-02T18:28:24.122Z,82.30
2018-11-02T18:30:53.176Z,82.54
2018-11-02T18:33:22.527Z,82.48
2018-11-02T18:35:51.500Z,82.75
2018-11-02T18:38:21.949Z,81.88
2018-11-02T18:40:51.982Z,81.63
2018-11-02T18:43:21.947Z,81.58
2018-11-02T18:45:51.816Z,80.88
2018-11-02T18:48:23.600Z,81.60
2018-11-02T18:50:52.451Z,81.34
2018-11-02T18:53:22.196Z,81.40
2018-11-02T18:55:52.215Z,81.12
2018-11-02T18:58:21.982Z,81.42
2018-11-02T19:00:52.484Z,81.28
2018-11-02T19:03:22.014Z,82.04
2018-11-02T19:05:51.022Z,81.47
2018-11-02T19:08:19.909Z,81.70
2018-11-02T19:10:48.866Z,81.55
2018-11-02T19:13:17.831Z,83.01
2018-11-02T19:15:46.856Z,82.35
2018-11-02T19:18:15.725Z,83.41
2018-11-02T19:20:44.792Z,83.33
2018-11-02T19:23:13.725Z,83.17
2018-11-02T19:25:43.314Z,86.60
2018-11-02T19:28:12.405Z,86.95
2018-11-02T19:30:42.110Z,87.06
2018-11-02T19:33:11.669Z,87.37
2018-11-02T19:35:40.535Z,87.62
2018-11-02T19:38:09.643Z,87.55
2018-11-02T19:40:38.412Z,88.48
2018-11-02T19:43:07.743Z,87.69
2018-11-02T19:45:36.645Z,88.54
2018-11-02T19:48:06.208Z,88.71
2018-11-02T19:50:35.271Z,87.84
2018-11-02T19:53:04.148Z,88.25
2018-11-02T19:55:33.120Z,87.73
2018-11-02T19:58:02.065Z,88.29
2018-11-02T20:00:31.001Z,89.07
2018-11-02T20:03:03.251Z,89.45
2018-11-02T20:05:33.079Z,90.24
2018-11-02T20:08:02.110Z,89.61
2018-11-02T20:10:31.078Z,89.11
2018-11-02T20:12:59.986Z,89.87
2018-11-02T20:15:28.953Z,89.40
2018-11-02T20:17:58.012Z,88.59
2018-11-02T20:20:26.971Z,88.79
2018-11-02T20:22:55.914Z,88.79
2018-11-02T20:25:24.893Z,88.56
2018-11-02T20:27:53.903Z,88.98
2018-11-02T20:30:22.871Z,88.02
2018-11-02T20:32:51.833Z,88.23
2018-11-02T20:35:20.774Z,87.85
2018-11-02T20:37:49.733Z,88.31
2018-11-02T20:40:19.564Z,88.26
2018-11-02T20:42:48.491Z,88.02
2018-11-02T20:45:17.741Z,88.00
2018-11-02T20:47:49.713Z,87.90
2018-11-02T20:50:18.703Z,87.73
2018-11-02T20:52:47.814Z,88.04
2018-11-02T20:55:17.212Z,88.13
2018-11-02T20:57:46.145Z,87.96
2018-11-02T21:00:18.449Z,87.17
2018-11-02T21:02:47.482Z,87.40
2018-11-02T21:05:17.430Z,87.64
2018-11-02T21:07:46.890Z,87.28
2018-11-02T21:10:17.203Z,87.70
2018-11-02T21:12:46.215Z,87.91
2018-11-02T21:15:16.533Z,88.38
2018-11-02T21:17:45.552Z,88.03
2018-11-02T21:20:16.807Z,88.38
2018-11-02T21:22:45.805Z,87.86
2018-11-02T21:25:15.297Z,88.47
2018-11-02T21:27:44.758Z,88.32
2018-11-02T21:30:17.941Z,88.25
2018-11-02T21:32:47.730Z,87.59
2018-11-02T21:35:17.368Z,86.90
2018-11-02T21:37:46.370Z,87.20
2018-11-02T21:40:16.615Z,87.56
2018-11-02T21:42:45.572Z,86.42
2018-11-02T21:45:15.679Z,86.77
2018-11-02T21:47:45.040Z,87.17
2018-11-02T21:50:14.455Z,86.85
2018-11-02T21:52:43.645Z,86.36
2018-11-02T21:55:12.542Z,86.41
2018-11-02T21:57:41.437Z,87.04
2018-11-02T22:00:12.812Z,86.18
2018-11-02T22:02:41.943Z,85.95
2018-11-02T22:05:12.177Z,85.56
2018-11-02T22:07:41.921Z,86.32
2018-11-02T22:10:11.685Z,86.46
2018-11-02T22:12:40.631Z,85.98
2018-11-02T22:15:10.061Z,86.60
2018-11-02T22:17:39.588Z,86.21
2018-11-02T22:20:09.956Z,85.99
2018-11-02T22:22:39.255Z,86.53
2018-11-02T22:25:09.023Z,87.25
2018-11-02T22:27:37.903Z,86.52
2018-11-02T22:30:09.120Z,85.99
2018-11-02T22:32:38.082Z,86.13
2018-11-02T22:35:07.007Z,86.17
2018-11-02T22:37:35.960Z,85.82
2018-11-02T22:40:06.130Z,86.48
2018-11-02T22:42:35.308Z,85.57
2018-11-02T22:45:04.375Z,85.95
2018-11-02T22:47:33.671Z,86.82
2018-11-02T22:50:02.599Z,87.77
2018-11-02T22:52:31.530Z,87.45
2018-11-02T22:55:00.494Z,88.29
2018-11-02T22:57:29.698Z,88.31
2018-11-02T22:59:58.645Z,87.96
2018-11-02T23:02:27.608Z,87.86
2018-11-02T23:04:56.547Z,88.09
2018-11-02T23:07:25.631Z,88.32
2018-11-02T23:09:54.550Z,88.14
2018-11-02T23:12:23.501Z,88.54
2018-11-02T23:14:52.471Z,89.05
2018-11-02T23:17:21.439Z,88.96
2018-11-02T23:19:50.440Z,89.16
2018-11-02T23:22:19.416Z,88.05
2018-11-02T23:24:48.328Z,87.72
2018-11-02T23:27:22.459Z,88.07
2018-11-02T23:29:51.583Z,87.48
2018-11-02T23:32:22.839Z,88.24
2018-11-02T23:34:52.802Z,88.69
2018-11-02T23:37:23.295Z,89.53
2018-11-02T23:39:55.243Z,89.00
2018-11-02T23:42:24.416Z,89.61
2018-11-02T23:44:53.392Z,89.56
2018-11-02T23:47:22.300Z,89.34
2018-11-02T23:49:51.414Z,89.19
2018-11-02T23:52:20.519Z,89.68
2018-11-02T23:54:49.611Z,89.12
2018-11-02T23:57:18.629Z,88.81
2018-11-02T23:59:47.699Z,89.53
